Waynesville, Ohio
Current Conditions -  °F | °C
As of 4:53 AM on Monday 26 Jan 2015 (Local Time) from KMGY Reporting Station
Overcast Overcast  
Wind Chill: -15°   Ceiling: 2200
Heat Index: -7°   Visibility: 9mi
Dew Point: -9°   Wind: 16mph
Humidity: 85%   Direction: 350°N
Pressure: 29.78"   Gusts: 23mph
Location:  39.53°N, 84.09°W
Report Text: KMGY 260953Z AUTO 35014G20KT 9SM FEW012 OVC022 M07/M09 A2978 RMK AO2 SNE22 SLP095 P0000 T10671089
Loading
Personal Weather Stations






























Interactive Weather Map New forecast layout! Learn more

10-Day Weather Forecast

Advertisements
Track Severe Weather on mobile